createdAt,value
2018-12-26T00:00:11.817Z,103103.00
2018-12-26T00:02:41.344Z,103113.00
2018-12-26T00:05:10.841Z,103112.00
2018-12-26T00:07:40.286Z,103100.00
2018-12-26T00:10:09.791Z,103103.00
2018-12-26T00:12:39.291Z,103109.00
2018-12-26T00:15:08.881Z,103101.00
2018-12-26T00:17:38.423Z,103108.00
2018-12-26T00:20:07.862Z,103114.00
2018-12-26T00:22:37.355Z,103115.00
2018-12-26T00:25:06.824Z,103111.00
2018-12-26T00:27:36.328Z,103101.00
2018-12-26T00:30:06.337Z,103106.00
2018-12-26T00:32:38.371Z,103106.00
2018-12-26T00:35:06.940Z,103095.00
2018-12-26T00:37:36.472Z,103105.00
2018-12-26T00:40:06.424Z,103097.00
2018-12-26T00:42:35.963Z,103088.00
2018-12-26T00:45:06.782Z,103096.00
2018-12-26T00:47:36.286Z,103091.00
2018-12-26T00:50:06.332Z,103082.00
2018-12-26T00:52:35.828Z,103085.00
2018-12-26T00:55:06.033Z,103081.00
2018-12-26T00:57:35.524Z,103084.00
2018-12-26T01:00:06.602Z,103083.00
2018-12-26T01:02:36.063Z,103077.00
2018-12-26T01:05:06.022Z,103074.00
2018-12-26T01:07:35.487Z,103082.00
2018-12-26T01:10:06.273Z,103075.00
2018-12-26T01:12:35.751Z,103074.00
2018-12-26T01:15:05.958Z,103081.00
2018-12-26T01:17:35.427Z,103086.00
2018-12-26T01:20:05.926Z,103081.00
2018-12-26T01:22:35.390Z,103082.00
2018-12-26T01:25:05.381Z,103078.00
2018-12-26T01:27:34.856Z,103070.00
2018-12-26T01:30:04.923Z,103065.00
2018-12-26T01:32:34.370Z,103074.00
2018-12-26T01:35:03.933Z,103069.00
2018-12-26T01:37:33.456Z,103069.00
2018-12-26T01:40:02.917Z,103060.00
2018-12-26T01:42:32.388Z,103065.00
2018-12-26T01:45:01.853Z,103061.00
2018-12-26T01:47:31.337Z,103059.00
2018-12-26T01:50:00.789Z,103056.00
2018-12-26T01:52:30.241Z,103061.00
2018-12-26T01:54:59.773Z,103052.00
2018-12-26T01:57:29.253Z,103050.00
2018-12-26T01:59:58.702Z,103046.00
2018-12-26T02:02:28.162Z,103050.00
2018-12-26T02:04:57.665Z,103045.00
2018-12-26T02:07:27.094Z,103048.00
2018-12-26T02:09:56.572Z,103042.00
2018-12-26T02:12:26.053Z,103046.00
2018-12-26T02:14:55.516Z,103029.00
2018-12-26T02:17:25.047Z,103022.00
2018-12-26T02:19:54.507Z,103031.00
2018-12-26T02:22:23.978Z,103029.00
2018-12-26T02:24:53.517Z,103027.00
2018-12-26T02:27:23.065Z,103033.00
2018-12-26T02:29:52.517Z,103025.00
2018-12-26T02:32:21.999Z,103030.00
2018-12-26T02:34:51.495Z,103036.00
2018-12-26T02:37:21.131Z,103036.00
2018-12-26T02:39:50.563Z,103031.00
2018-12-26T02:42:20.112Z,103028.00
2018-12-26T02:44:49.643Z,103027.00
2018-12-26T02:47:19.103Z,103027.00
2018-12-26T02:49:48.590Z,103026.00
2018-12-26T02:52:18.042Z,103032.00
2018-12-26T02:54:47.518Z,103024.00
2018-12-26T02:57:17.018Z,103028.00
2018-12-26T02:59:46.471Z,103028.00
2018-12-26T03:02:15.954Z,103034.00
2018-12-26T03:04:45.445Z,103025.00
2018-12-26T03:07:14.887Z,103025.00
2018-12-26T03:09:44.353Z,103029.00
2018-12-26T03:12:13.831Z,103032.00
2018-12-26T03:14:43.497Z,103033.00
2018-12-26T03:17:13.097Z,103020.00
2018-12-26T03:19:42.563Z,103023.00
2018-12-26T03:22:12.033Z,103026.00
2018-12-26T03:24:41.533Z,103018.00
2018-12-26T03:27:11.026Z,103025.00
2018-12-26T03:29:40.476Z,103020.00
2018-12-26T03:32:10.032Z,103022.00
2018-12-26T03:34:39.656Z,103015.00
2018-12-26T03:37:09.230Z,103019.00
2018-12-26T03:39:38.750Z,103018.00
2018-12-26T03:42:08.401Z,103016.00
2018-12-26T03:44:39.478Z,103006.00
2018-12-26T03:47:09.654Z,103005.00
2018-12-26T03:49:39.275Z,103006.00
2018-12-26T03:52:08.874Z,102995.00
2018-12-26T03:54:38.502Z,102989.00
2018-12-26T03:57:08.157Z,102988.00
2018-12-26T03:59:37.578Z,102988.00
2018-12-26T04:02:07.134Z,102985.00
2018-12-26T04:04:36.592Z,102990.00
2018-12-26T04:07:06.163Z,102986.00
2018-12-26T04:09:35.624Z,102975.00
2018-12-26T04:12:05.162Z,102976.00
2018-12-26T04:14:34.781Z,102973.00
2018-12-26T04:17:04.513Z,102975.00
2018-12-26T04:19:34.409Z,102978.00
2018-12-26T04:22:03.852Z,102980.00
2018-12-26T04:24:33.383Z,102983.00
2018-12-26T04:27:02.879Z,102974.00
2018-12-26T04:29:32.307Z,102978.00
2018-12-26T04:32:01.771Z,102985.00
2018-12-26T04:34:31.382Z,102979.00
2018-12-26T04:37:00.862Z,102983.00
2018-12-26T04:39:30.338Z,102976.00
2018-12-26T04:41:59.834Z,102988.00
2018-12-26T04:44:29.271Z,102979.00
2018-12-26T04:46:58.740Z,102975.00
2018-12-26T04:49:28.212Z,102977.00
2018-12-26T04:51:57.664Z,102977.00
2018-12-26T04:54:27.190Z,102981.00
2018-12-26T04:56:56.720Z,102977.00
2018-12-26T04:59:26.154Z,102974.00
2018-12-26T05:01:55.608Z,102978.00
2018-12-26T05:04:25.091Z,102978.00
2018-12-26T05:06:54.530Z,102980.00
2018-12-26T05:09:24.158Z,102976.00
2018-12-26T05:11:53.693Z,102985.00
2018-12-26T05:14:23.145Z,102983.00
2018-12-26T05:16:52.666Z,102977.00
2018-12-26T05:19:22.131Z,102980.00
2018-12-26T05:21:51.661Z,102982.00
2018-12-26T05:24:21.292Z,102982.00
2018-12-26T05:26:50.911Z,102987.00
2018-12-26T05:29:20.356Z,102975.00
2018-12-26T05:31:49.813Z,102979.00
2018-12-26T05:34:19.278Z,102980.00
2018-12-26T05:36:48.724Z,102979.00
2018-12-26T05:39:18.248Z,102984.00
2018-12-26T05:41:47.733Z,102979.00
2018-12-26T05:44:17.224Z,102975.00
2018-12-26T05:46:46.683Z,102979.00
2018-12-26T05:49:16.141Z,102979.00
2018-12-26T05:51:45.604Z,102977.00
2018-12-26T05:54:15.089Z,102970.00
2018-12-26T05:56:44.532Z,102977.00
2018-12-26T05:59:13.992Z,102970.00
2018-12-26T06:01:43.493Z,102965.00
2018-12-26T06:04:12.979Z,102967.00
2018-12-26T06:06:42.494Z,102965.00
2018-12-26T06:09:11.975Z,102962.00
2018-12-26T06:11:41.445Z,102972.00
2018-12-26T06:14:10.885Z,102969.00
2018-12-26T06:16:40.410Z,102966.00
2018-12-26T06:19:09.878Z,102967.00
2018-12-26T06:21:39.319Z,102966.00
2018-12-26T06:24:08.849Z,102965.00
2018-12-26T06:26:38.324Z,102979.00
2018-12-26T06:29:07.795Z,102978.00
2018-12-26T06:31:37.288Z,102975.00
2018-12-26T06:34:06.874Z,102970.00
2018-12-26T06:36:36.311Z,102967.00
2018-12-26T06:39:07.860Z,102977.00
2018-12-26T06:41:37.341Z,102964.00
2018-12-26T06:44:06.802Z,102983.00
2018-12-26T06:46:36.297Z,102972.00
2018-12-26T06:49:05.724Z,102981.00
2018-12-26T06:51:35.165Z,102979.00
2018-12-26T06:54:04.619Z,102982.00
2018-12-26T06:56:34.087Z,102973.00
2018-12-26T06:59:03.532Z,102977.00
2018-12-26T07:01:33.008Z,102977.00
2018-12-26T07:04:02.477Z,102979.00
2018-12-26T07:06:31.924Z,102972.00
2018-12-26T07:09:01.426Z,102978.00
2018-12-26T07:11:30.880Z,102992.00
2018-12-26T07:14:00.362Z,102998.00
2018-12-26T07:16:29.938Z,102997.00
2018-12-26T07:18:59.378Z,102997.00
2018-12-26T07:21:28.859Z,103004.00
2018-12-26T07:23:58.412Z,103007.00
2018-12-26T07:26:27.885Z,103006.00
2018-12-26T07:28:57.323Z,103004.00
2018-12-26T07:31:26.796Z,103000.00
2018-12-26T07:33:56.248Z,102994.00
2018-12-26T07:36:25.675Z,102993.00
2018-12-26T07:38:55.182Z,103004.00
2018-12-26T07:41:24.659Z,103014.00
2018-12-26T07:43:54.122Z,103008.00
2018-12-26T07:46:23.634Z,103007.00
2018-12-26T07:48:53.103Z,103007.00
2018-12-26T07:51:22.585Z,103013.00
2018-12-26T07:53:52.039Z,103014.00
2018-12-26T07:56:21.507Z,103016.00
2018-12-26T07:58:50.979Z,103019.00
2018-12-26T08:01:20.443Z,103010.00
2018-12-26T08:03:49.927Z,103004.00
2018-12-26T08:06:19.406Z,103016.00
2018-12-26T08:08:48.868Z,103016.00
2018-12-26T08:11:18.354Z,103015.00
2018-12-26T08:13:47.867Z,103005.00
2018-12-26T08:16:17.361Z,103016.00
2018-12-26T08:18:46.832Z,103022.00
2018-12-26T08:21:16.280Z,103016.00
2018-12-26T08:23:45.765Z,103018.00
2018-12-26T08:26:15.243Z,103022.00
2018-12-26T08:28:44.695Z,103018.00
2018-12-26T08:31:14.130Z,103021.00
2018-12-26T08:33:43.617Z,103020.00
2018-12-26T08:36:13.097Z,103023.00
2018-12-26T08:38:42.547Z,103020.00
2018-12-26T08:41:12.003Z,103045.00
2018-12-26T08:43:41.451Z,103043.00
2018-12-26T08:46:11.002Z,103038.00
2018-12-26T08:48:40.623Z,103030.00
2018-12-26T08:51:10.075Z,103031.00
2018-12-26T08:53:39.691Z,103020.00
2018-12-26T08:56:09.220Z,103026.00
2018-12-26T08:58:38.750Z,103020.00
2018-12-26T09:01:08.443Z,103017.00
2018-12-26T09:03:37.910Z,103021.00
2018-12-26T09:06:07.362Z,103014.00
2018-12-26T09:08:37.041Z,103014.00
2018-12-26T09:11:06.483Z,103017.00
2018-12-26T09:13:35.971Z,103017.00
2018-12-26T09:16:05.633Z,103016.00
2018-12-26T09:18:35.103Z,103015.00
2018-12-26T09:21:04.664Z,103021.00
2018-12-26T09:23:34.188Z,103017.00
2018-12-26T09:26:03.612Z,103021.00
2018-12-26T09:28:33.082Z,103016.00
2018-12-26T09:31:02.620Z,103013.00
2018-12-26T09:33:32.152Z,103005.00
2018-12-26T09:36:01.693Z,103007.00
2018-12-26T09:38:31.237Z,102994.00
2018-12-26T09:41:00.766Z,102999.00
2018-12-26T09:43:30.209Z,103000.00
2018-12-26T09:45:59.975Z,102994.00
2018-12-26T09:48:29.465Z,102998.00
2018-12-26T09:50:58.912Z,103000.00
2018-12-26T09:53:28.376Z,103001.00
2018-12-26T09:55:57.969Z,102988.00
2018-12-26T09:58:27.464Z,102985.00
2018-12-26T10:00:56.926Z,102992.00
2018-12-26T10:03:26.399Z,102993.00
2018-12-26T10:05:55.880Z,102986.00
2018-12-26T10:08:25.330Z,102993.00
2018-12-26T10:10:54.788Z,102988.00
2018-12-26T10:13:24.282Z,102975.00
2018-12-26T10:15:53.754Z,102978.00
2018-12-26T10:18:23.254Z,102974.00
2018-12-26T10:20:52.740Z,102981.00
2018-12-26T10:23:22.263Z,102975.00
2018-12-26T10:25:51.761Z,102968.00
2018-12-26T10:28:21.229Z,102971.00
2018-12-26T10:30:50.661Z,102976.00
2018-12-26T10:33:20.123Z,102976.00
2018-12-26T10:35:49.609Z,102969.00
2018-12-26T10:38:19.132Z,102974.00
2018-12-26T10:40:48.591Z,102969.00
2018-12-26T10:43:18.041Z,102964.00
2018-12-26T10:45:47.567Z,102956.00
2018-12-26T10:48:17.028Z,102961.00
2018-12-26T10:50:46.511Z,102963.00
2018-12-26T10:53:15.972Z,102958.00
2018-12-26T10:55:45.465Z,102951.00
2018-12-26T10:58:14.992Z,102961.00
2018-12-26T11:00:44.447Z,102945.00
2018-12-26T11:03:13.875Z,102954.00
2018-12-26T11:05:43.492Z,102948.00
2018-12-26T11:08:13.097Z,102941.00
2018-12-26T11:10:42.545Z,102942.00
2018-12-26T11:13:12.047Z,102936.00
2018-12-26T11:15:41.549Z,102931.00
2018-12-26T11:18:11.757Z,102923.00
2018-12-26T11:20:41.350Z,102927.00
2018-12-26T11:23:10.827Z,102919.00
2018-12-26T11:25:40.288Z,102923.00
2018-12-26T11:28:09.768Z,102919.00
2018-12-26T11:30:40.438Z,102926.00
2018-12-26T11:33:09.924Z,102921.00
2018-12-26T11:35:39.393Z,102918.00
2018-12-26T11:38:08.929Z,102914.00
2018-12-26T11:40:38.433Z,102911.00
2018-12-26T11:43:07.962Z,102910.00
2018-12-26T11:45:37.553Z,102914.00
2018-12-26T11:48:07.000Z,102908.00
2018-12-26T11:50:36.800Z,102905.00
2018-12-26T11:53:06.294Z,102914.00
2018-12-26T11:55:35.816Z,102902.00
2018-12-26T11:58:05.312Z,102891.00
2018-12-26T12:00:34.840Z,102884.00
2018-12-26T12:03:04.436Z,102890.00
2018-12-26T12:05:34.074Z,102885.00
2018-12-26T12:08:03.698Z,102887.00
2018-12-26T12:10:33.255Z,102875.00
2018-12-26T12:13:02.804Z,102879.00
2018-12-26T12:15:32.501Z,102881.00
2018-12-26T12:18:02.094Z,102875.00
2018-12-26T12:20:31.547Z,102879.00
2018-12-26T12:23:00.995Z,102878.00
2018-12-26T12:25:30.472Z,102875.00
2018-12-26T12:27:59.921Z,102867.00
2018-12-26T12:30:29.364Z,102864.00
2018-12-26T12:32:58.854Z,102866.00
2018-12-26T12:35:28.434Z,102870.00
2018-12-26T12:37:57.949Z,102868.00
2018-12-26T12:40:27.634Z,102877.00
2018-12-26T12:42:57.155Z,102871.00
2018-12-26T12:45:26.714Z,102871.00
2018-12-26T12:47:56.359Z,102872.00
2018-12-26T12:50:25.955Z,102866.00
2018-12-26T12:52:55.401Z,102866.00
2018-12-26T12:55:25.008Z,102865.00
2018-12-26T12:57:54.704Z,102869.00
2018-12-26T13:00:24.215Z,102870.00
2018-12-26T13:03:00.396Z,102860.00
2018-12-26T13:05:24.956Z,102870.00
2018-12-26T13:07:54.437Z,102861.00
2018-12-26T13:10:23.951Z,102869.00
2018-12-26T13:12:53.528Z,102865.00
2018-12-26T13:15:23.097Z,102863.00
2018-12-26T13:17:52.573Z,102864.00
2018-12-26T13:20:22.029Z,102865.00
2018-12-26T13:22:51.644Z,102855.00
2018-12-26T13:25:21.190Z,102859.00
2018-12-26T13:27:50.757Z,102855.00
2018-12-26T13:30:20.214Z,102858.00
2018-12-26T13:32:49.705Z,102859.00
2018-12-26T13:35:19.175Z,102861.00
2018-12-26T13:37:48.635Z,102854.00
2018-12-26T13:40:18.130Z,102850.00
2018-12-26T13:42:47.746Z,102846.00
2018-12-26T13:45:17.193Z,102850.00
2018-12-26T13:47:46.809Z,102845.00
2018-12-26T13:50:16.341Z,102836.00
2018-12-26T13:52:45.767Z,102834.00
2018-12-26T13:55:15.247Z,102838.00
2018-12-26T13:57:44.878Z,102837.00
2018-12-26T14:00:14.361Z,102837.00
2018-12-26T14:02:43.852Z,102836.00
2018-12-26T14:05:13.294Z,102833.00
2018-12-26T14:07:42.770Z,102831.00
2018-12-26T14:10:12.495Z,102838.00
2018-12-26T14:12:41.949Z,102836.00
2018-12-26T14:15:11.510Z,102840.00
2018-12-26T14:17:41.057Z,102835.00
2018-12-26T14:20:10.623Z,102835.00
2018-12-26T14:22:40.234Z,102844.00
2018-12-26T14:25:09.907Z,102849.00
2018-12-26T14:27:39.374Z,102853.00
2018-12-26T14:30:11.258Z,102849.00
2018-12-26T14:32:41.125Z,102846.00
2018-12-26T14:35:10.587Z,102852.00
2018-12-26T14:37:40.041Z,102848.00
2018-12-26T14:40:09.531Z,102847.00
2018-12-26T14:42:39.092Z,102857.00
2018-12-26T14:45:08.808Z,102846.00
2018-12-26T14:47:38.270Z,102841.00
2018-12-26T14:50:08.414Z,102849.00
2018-12-26T14:52:38.266Z,102844.00
2018-12-26T14:55:07.868Z,102842.00
2018-12-26T14:57:37.497Z,102844.00
2018-12-26T15:00:09.580Z,102851.00
2018-12-26T15:02:39.083Z,102846.00
2018-12-26T15:05:08.759Z,102838.00
2018-12-26T15:07:38.283Z,102839.00
2018-12-26T15:10:08.163Z,102837.00
2018-12-26T15:12:37.610Z,102832.00
2018-12-26T15:15:07.637Z,102832.00
2018-12-26T15:17:37.144Z,102837.00
2018-12-26T15:20:07.735Z,102829.00
2018-12-26T15:22:37.189Z,102826.00
2018-12-26T15:25:06.751Z,102826.00
2018-12-26T15:27:36.345Z,102829.00
2018-12-26T15:30:06.599Z,102829.00
2018-12-26T15:32:36.081Z,102836.00
2018-12-26T15:35:05.798Z,102825.00
2018-12-26T15:37:35.243Z,102822.00
2018-12-26T15:40:08.442Z,102826.00
2018-12-26T15:42:37.893Z,102822.00
2018-12-26T15:45:07.994Z,102825.00
2018-12-26T15:47:37.453Z,102820.00
2018-12-26T15:50:07.740Z,102818.00
2018-12-26T15:52:37.191Z,102821.00
2018-12-26T15:55:06.806Z,102825.00
2018-12-26T15:57:36.269Z,102820.00
2018-12-26T16:00:08.969Z,102821.00
2018-12-26T16:02:38.536Z,102817.00
2018-12-26T16:05:08.696Z,102825.00
2018-12-26T16:07:38.161Z,102815.00
2018-12-26T16:10:09.350Z,102819.00
2018-12-26T16:12:38.797Z,102823.00
2018-12-26T16:15:09.667Z,102811.00
2018-12-26T16:20:10.219Z,102808.00
2018-12-26T16:22:39.868Z,102805.00
2018-12-26T16:25:10.373Z,102804.00
2018-12-26T16:27:39.832Z,102798.00
2018-12-26T16:30:10.396Z,102792.00
2018-12-26T16:32:39.939Z,102791.00
2018-12-26T16:35:09.411Z,102792.00
2018-12-26T16:37:38.947Z,102794.00
2018-12-26T16:40:08.754Z,102799.00
2018-12-26T16:42:38.220Z,102795.00
2018-12-26T16:45:07.982Z,102791.00
2018-12-26T16:47:37.683Z,102787.00
2018-12-26T16:50:08.554Z,102785.00
2018-12-26T16:52:38.016Z,102785.00
2018-12-26T16:55:08.938Z,102793.00
2018-12-26T16:57:38.463Z,102791.00
2018-12-26T17:00:12.183Z,102792.00
2018-12-26T17:02:41.756Z,102793.00
2018-12-26T17:05:11.269Z,102793.00
2018-12-26T17:07:40.796Z,102795.00
2018-12-26T17:10:15.002Z,102796.00
2018-12-26T17:12:44.523Z,102794.00
2018-12-26T17:15:14.046Z,102793.00
2018-12-26T17:17:43.521Z,102798.00
2018-12-26T17:20:13.152Z,102797.00
2018-12-26T17:22:42.615Z,102796.00
2018-12-26T17:25:12.169Z,102795.00
2018-12-26T17:27:41.809Z,102801.00
2018-12-26T17:30:11.352Z,102804.00
2018-12-26T17:32:40.831Z,102801.00
2018-12-26T17:35:10.314Z,102796.00
2018-12-26T17:37:39.787Z,102806.00
2018-12-26T17:40:09.603Z,102800.00
2018-12-26T17:42:39.091Z,102796.00
2018-12-26T17:45:10.209Z,102795.00
2018-12-26T17:47:39.691Z,102788.00
2018-12-26T17:50:45.810Z,102785.00
2018-12-26T17:53:28.846Z,102790.00
2018-12-26T17:56:14.666Z,102799.00
2018-12-26T17:58:51.830Z,102799.00
2018-12-26T18:01:56.030Z,102803.00
2018-12-26T18:04:25.635Z,102800.00
2018-12-26T18:06:55.258Z,102803.00
2018-12-26T18:09:24.739Z,102804.00
2018-12-26T18:11:54.277Z,102805.00
2018-12-26T18:14:23.780Z,102802.00
2018-12-26T18:16:53.321Z,102806.00
2018-12-26T18:19:22.856Z,102808.00
2018-12-26T18:21:52.386Z,102814.00
2018-12-26T18:24:21.837Z,102811.00
2018-12-26T18:26:51.339Z,102809.00
2018-12-26T18:29:20.817Z,102804.00
2018-12-26T18:31:50.374Z,102806.00
2018-12-26T18:34:20.041Z,102808.00
2018-12-26T18:36:49.477Z,102809.00
2018-12-26T18:39:18.968Z,102818.00
2018-12-26T18:41:48.505Z,102812.00
2018-12-26T18:44:18.009Z,102804.00
2018-12-26T18:46:47.541Z,102805.00
2018-12-26T18:49:17.037Z,102804.00
2018-12-26T18:51:46.510Z,102804.00
2018-12-26T18:54:16.078Z,102800.00
2018-12-26T18:56:45.738Z,102802.00
2018-12-26T18:59:15.208Z,102809.00
2018-12-26T19:01:44.698Z,102799.00
2018-12-26T19:04:14.236Z,102794.00
2018-12-26T19:06:43.934Z,102794.00
2018-12-26T19:09:13.455Z,102798.00
2018-12-26T19:11:43.016Z,102792.00
2018-12-26T19:14:12.436Z,102785.00
2018-12-26T19:16:41.925Z,102787.00
2018-12-26T19:19:11.373Z,102787.00
2018-12-26T19:21:40.922Z,102788.00
2018-12-26T19:24:10.450Z,102783.00
2018-12-26T19:26:39.913Z,102781.00
2018-12-26T19:29:09.407Z,102777.00
2018-12-26T19:31:39.672Z,102783.00
2018-12-26T19:34:09.425Z,102775.00
2018-12-26T19:36:38.920Z,102781.00
2018-12-26T19:39:08.464Z,102777.00
2018-12-26T19:41:38.017Z,102772.00
2018-12-26T19:44:07.485Z,102779.00
2018-12-26T19:46:36.959Z,102779.00
2018-12-26T19:49:06.462Z,102775.00
2018-12-26T19:51:35.948Z,102761.00
2018-12-26T19:54:05.602Z,102757.00
2018-12-26T19:56:35.055Z,102756.00
2018-12-26T19:59:04.704Z,102754.00
2018-12-26T20:01:34.150Z,102758.00
2018-12-26T20:04:03.596Z,102750.00
2018-12-26T20:06:52.687Z,102740.00
2018-12-26T20:09:22.136Z,102732.00
2018-12-26T20:11:51.581Z,102738.00
2018-12-26T20:14:30.184Z,102731.00
2018-12-26T20:16:59.619Z,102728.00
2018-12-26T20:19:29.147Z,102725.00
2018-12-26T20:21:58.638Z,102725.00
2018-12-26T20:24:28.111Z,102722.00
2018-12-26T20:26:57.645Z,102716.00
2018-12-26T20:29:27.119Z,102708.00
2018-12-26T20:31:57.107Z,102704.00
2018-12-26T20:34:26.925Z,102703.00
2018-12-26T20:36:56.398Z,102703.00
2018-12-26T20:39:25.935Z,102706.00
2018-12-26T20:41:55.411Z,102693.00
2018-12-26T20:44:24.876Z,102697.00
2018-12-26T20:46:54.416Z,102695.00
2018-12-26T20:49:23.874Z,102685.00
2018-12-26T20:51:53.343Z,102683.00
2018-12-26T20:54:22.812Z,102673.00
2018-12-26T20:56:52.288Z,102682.00
2018-12-26T20:59:21.735Z,102687.00
2018-12-26T21:01:51.245Z,102681.00
2018-12-26T21:04:20.867Z,102685.00
2018-12-26T21:06:50.401Z,102685.00
2018-12-26T21:09:20.895Z,102686.00
2018-12-26T21:11:50.400Z,102678.00
2018-12-26T21:14:19.843Z,102680.00
2018-12-26T21:16:54.924Z,102682.00
2018-12-26T21:19:20.693Z,102685.00
2018-12-26T21:21:50.141Z,102683.00
2018-12-26T21:24:19.629Z,102680.00
2018-12-26T21:26:49.090Z,102680.00
2018-12-26T21:29:18.741Z,102687.00
2018-12-26T21:31:48.298Z,102689.00
2018-12-26T21:34:17.824Z,102692.00
2018-12-26T21:36:47.323Z,102692.00
2018-12-26T21:39:16.876Z,102692.00
2018-12-26T21:41:46.483Z,102695.00
2018-12-26T21:44:15.930Z,102691.00
2018-12-26T21:46:45.413Z,102690.00
2018-12-26T21:49:14.876Z,102682.00
2018-12-26T21:51:44.358Z,102680.00
2018-12-26T21:54:13.829Z,102682.00
2018-12-26T21:56:43.309Z,102680.00
2018-12-26T21:59:12.786Z,102689.00
2018-12-26T22:01:42.270Z,102693.00
2018-12-26T22:04:11.831Z,102680.00
2018-12-26T22:06:42.960Z,102673.00
2018-12-26T22:09:12.560Z,102682.00
2018-12-26T22:11:42.053Z,102678.00
2018-12-26T22:14:11.530Z,102682.00
2018-12-26T22:16:40.992Z,102678.00
2018-12-26T22:19:10.503Z,102682.00
2018-12-26T22:21:40.036Z,102681.00
2018-12-26T22:24:09.459Z,102674.00
2018-12-26T22:26:43.194Z,102668.00
2018-12-26T22:29:10.130Z,102668.00
2018-12-26T22:31:39.737Z,102670.00
2018-12-26T22:34:09.189Z,102658.00
2018-12-26T22:36:38.720Z,102658.00
2018-12-26T22:39:08.209Z,102666.00
2018-12-26T22:41:37.663Z,102657.00
2018-12-26T22:44:07.147Z,102669.00
2018-12-26T22:46:36.600Z,102660.00
2018-12-26T22:49:06.042Z,102663.00
2018-12-26T22:51:41.903Z,102647.00
2018-12-26T22:54:06.900Z,102655.00
2018-12-26T22:56:36.345Z,102663.00
2018-12-26T22:59:05.821Z,102658.00
2018-12-26T23:01:35.342Z,102657.00
2018-12-26T23:04:04.935Z,102647.00
2018-12-26T23:06:34.437Z,102648.00
2018-12-26T23:09:05.292Z,102644.00
2018-12-26T23:11:34.826Z,102649.00
2018-12-26T23:14:04.390Z,102647.00
2018-12-26T23:16:33.835Z,102635.00
2018-12-26T23:19:03.421Z,102631.00
2018-12-26T23:21:32.933Z,102639.00
2018-12-26T23:24:02.351Z,102627.00
2018-12-26T23:26:31.824Z,102629.00
2018-12-26T23:29:01.274Z,102632.00
2018-12-26T23:31:30.828Z,102626.00
2018-12-26T23:34:00.271Z,102641.00
2018-12-26T23:36:29.735Z,102632.00
2018-12-26T23:38:59.196Z,102628.00
2018-12-26T23:41:29.978Z,102632.00
2018-12-26T23:43:59.495Z,102628.00
2018-12-26T23:46:28.969Z,102629.00
2018-12-26T23:48:58.436Z,102624.00
2018-12-26T23:51:27.864Z,102624.00
2018-12-26T23:53:57.346Z,102616.00
2018-12-26T23:56:26.801Z,102620.00
2018-12-26T23:58:56.338Z,102619.00
